sensor_id;sensor_type;location;lat;lon;timestamp;P1;durP1;ratioP1;P2;durP2;ratioP2
53299;SDS011;39187;48.476;8.310;2023-02-24T00:00:06;10.90;;;7.83;;
53299;SDS011;39187;48.476;8.310;2023-02-24T00:02:52;12.90;;;8.30;;
53299;SDS011;39187;48.476;8.310;2023-02-24T00:05:18;12.33;;;7.80;;
53299;SDS011;39187;48.476;8.310;2023-02-24T00:07:43;8.83;;;8.03;;
53299;SDS011;39187;48.476;8.310;2023-02-24T00:10:09;10.93;;;8.50;;
53299;SDS011;39187;48.476;8.310;2023-02-24T00:12:35;11.13;;;7.50;;
53299;SDS011;39187;48.476;8.310;2023-02-24T00:15:01;11.70;;;8.03;;
53299;SDS011;39187;48.476;8.310;2023-02-24T00:17:29;11.43;;;8.50;;
53299;SDS011;39187;48.476;8.310;2023-02-24T00:19:55;10.50;;;8.30;;
53299;SDS011;39187;48.476;8.310;2023-02-24T00:22:21;19.73;;;8.13;;
53299;SDS011;39187;48.476;8.310;2023-02-24T00:24:47;15.40;;;6.43;;
53299;SDS011;39187;48.476;8.310;2023-02-24T00:27:13;9.03;;;4.73;;
53299;SDS011;39187;48.476;8.310;2023-02-24T00:29:39;12.93;;;5.90;;
53299;SDS011;39187;48.476;8.310;2023-02-24T00:32:06;7.03;;;5.33;;
53299;SDS011;39187;48.476;8.310;2023-02-24T00:34:36;7.40;;;5.00;;
53299;SDS011;39187;48.476;8.310;2023-02-24T00:37:03;8.90;;;5.07;;
53299;SDS011;39187;48.476;8.310;2023-02-24T00:39:32;7.40;;;4.33;;
53299;SDS011;39187;48.476;8.310;2023-02-24T00:42:00;11.60;;;4.70;;
53299;SDS011;39187;48.476;8.310;2023-02-24T00:44:30;5.30;;;4.80;;
53299;SDS011;39187;48.476;8.310;2023-02-24T00:47:00;9.50;;;7.13;;
53299;SDS011;39187;48.476;8.310;2023-02-24T00:49:29;5.50;;;5.00;;
53299;SDS011;39187;48.476;8.310;2023-02-24T00:51:55;9.00;;;4.70;;
53299;SDS011;39187;48.476;8.310;2023-02-24T00:54:21;11.37;;;5.27;;
53299;SDS011;39187;48.476;8.310;2023-02-24T00:56:49;8.67;;;4.93;;
53299;SDS011;39187;48.476;8.310;2023-02-24T00:59:15;7.60;;;4.70;;
53299;SDS011;39187;48.476;8.310;2023-02-24T01:01:43;5.77;;;5.17;;
53299;SDS011;39187;48.476;8.310;2023-02-24T01:04:10;24.70;;;12.33;;
53299;SDS011;39187;48.476;8.310;2023-02-24T01:06:43;16.33;;;8.73;;
53299;SDS011;39187;48.476;8.310;2023-02-24T01:09:12;19.63;;;7.30;;
53299;SDS011;39187;48.476;8.310;2023-02-24T01:11:41;9.63;;;4.93;;
53299;SDS011;39187;48.476;8.310;2023-02-24T01:14:43;11.17;;;5.23;;
53299;SDS011;39187;48.476;8.310;2023-02-24T01:17:12;9.00;;;4.80;;
53299;SDS011;39187;48.476;8.310;2023-02-24T01:19:39;7.63;;;5.87;;
53299;SDS011;39187;48.476;8.310;2023-02-24T01:22:06;9.37;;;5.60;;
53299;SDS011;39187;48.476;8.310;2023-02-24T01:24:38;15.80;;;5.67;;
53299;SDS011;39187;48.476;8.310;2023-02-24T01:27:05;7.20;;;6.43;;
53299;SDS011;39187;48.476;8.310;2023-02-24T01:29:32;10.80;;;6.87;;
53299;SDS011;39187;48.476;8.310;2023-02-24T01:32:03;11.83;;;7.40;;
53299;SDS011;39187;48.476;8.310;2023-02-24T01:34:30;9.90;;;6.70;;
53299;SDS011;39187;48.476;8.310;2023-02-24T01:36:55;16.83;;;8.60;;
53299;SDS011;39187;48.476;8.310;2023-02-24T01:39:21;10.80;;;7.63;;
53299;SDS011;39187;48.476;8.310;2023-02-24T01:41:47;19.33;;;8.20;;
53299;SDS011;39187;48.476;8.310;2023-02-24T01:46:55;11.93;;;9.23;;
53299;SDS011;39187;48.476;8.310;2023-02-24T01:49:27;15.03;;;10.40;;
53299;SDS011;39187;48.476;8.310;2023-02-24T01:52:15;13.80;;;8.60;;
53299;SDS011;39187;48.476;8.310;2023-02-24T01:55:01;13.40;;;8.03;;
53299;SDS011;39187;48.476;8.310;2023-02-24T01:57:38;15.50;;;8.50;;
53299;SDS011;39187;48.476;8.310;2023-02-24T02:00:04;8.30;;;7.60;;
53299;SDS011;39187;48.476;8.310;2023-02-24T02:02:36;12.90;;;8.07;;
53299;SDS011;39187;48.476;8.310;2023-02-24T02:05:07;7.80;;;7.10;;
53299;SDS011;39187;48.476;8.310;2023-02-24T02:07:34;12.90;;;7.10;;
53299;SDS011;39187;48.476;8.310;2023-02-24T02:10:03;16.13;;;7.03;;
53299;SDS011;39187;48.476;8.310;2023-02-24T02:12:34;10.80;;;6.90;;
53299;SDS011;39187;48.476;8.310;2023-02-24T02:15:01;13.90;;;7.47;;
53299;SDS011;39187;48.476;8.310;2023-02-24T02:20:26;6.83;;;6.13;;
53299;SDS011;39187;48.476;8.310;2023-02-24T02:26:46;20.80;;;7.93;;
53299;SDS011;39187;48.476;8.310;2023-02-24T02:29:32;10.77;;;7.00;;
53299;SDS011;39187;48.476;8.310;2023-02-24T02:37:53;10.77;;;7.13;;
53299;SDS011;39187;48.476;8.310;2023-02-24T02:40:25;10.53;;;6.10;;
53299;SDS011;39187;48.476;8.310;2023-02-24T02:43:13;10.40;;;5.50;;
53299;SDS011;39187;48.476;8.310;2023-02-24T02:48:23;17.10;;;7.20;;
53299;SDS011;39187;48.476;8.310;2023-02-24T02:51:09;7.73;;;6.63;;
53299;SDS011;39187;48.476;8.310;2023-02-24T02:53:49;17.50;;;7.17;;
53299;SDS011;39187;48.476;8.310;2023-02-24T02:56:45;23.60;;;7.80;;
53299;SDS011;39187;48.476;8.310;2023-02-24T02:59:12;8.37;;;6.50;;
53299;SDS011;39187;48.476;8.310;2023-02-24T03:01:46;10.07;;;7.80;;
53299;SDS011;39187;48.476;8.310;2023-02-24T03:04:16;7.77;;;6.33;;
53299;SDS011;39187;48.476;8.310;2023-02-24T03:06:49;14.10;;;7.50;;
53299;SDS011;39187;48.476;8.310;2023-02-24T03:09:20;15.17;;;8.00;;
53299;SDS011;39187;48.476;8.310;2023-02-24T03:11:51;12.53;;;6.80;;
53299;SDS011;39187;48.476;8.310;2023-02-24T03:14:27;15.37;;;6.50;;
53299;SDS011;39187;48.476;8.310;2023-02-24T03:17:01;12.40;;;7.33;;
53299;SDS011;39187;48.476;8.310;2023-02-24T03:19:32;8.00;;;7.40;;
53299;SDS011;39187;48.476;8.310;2023-02-24T03:23:03;11.40;;;8.33;;
53299;SDS011;39187;48.476;8.310;2023-02-24T03:25:05;16.73;;;7.40;;
53299;SDS011;39187;48.476;8.310;2023-02-24T03:27:33;12.23;;;7.90;;
53299;SDS011;39187;48.476;8.310;2023-02-24T03:32:50;9.80;;;7.30;;
53299;SDS011;39187;48.476;8.310;2023-02-24T03:35:31;17.10;;;8.00;;
53299;SDS011;39187;48.476;8.310;2023-02-24T03:38:04;14.87;;;8.47;;
53299;SDS011;39187;48.476;8.310;2023-02-24T03:40:31;21.13;;;9.30;;
53299;SDS011;39187;48.476;8.310;2023-02-24T03:43:02;11.10;;;7.93;;
53299;SDS011;39187;48.476;8.310;2023-02-24T03:45:52;18.17;;;8.17;;
53299;SDS011;39187;48.476;8.310;2023-02-24T03:48:19;10.53;;;7.10;;
53299;SDS011;39187;48.476;8.310;2023-02-24T03:50:46;12.67;;;6.73;;
53299;SDS011;39187;48.476;8.310;2023-02-24T04:01:24;24.13;;;9.60;;
53299;SDS011;39187;48.476;8.310;2023-02-24T04:12:25;9.83;;;6.73;;
53299;SDS011;39187;48.476;8.310;2023-02-24T04:15:00;7.37;;;6.43;;
53299;SDS011;39187;48.476;8.310;2023-02-24T04:17:57;6.97;;;6.23;;
53299;SDS011;39187;48.476;8.310;2023-02-24T04:20:29;6.17;;;5.57;;
53299;SDS011;39187;48.476;8.310;2023-02-24T04:23:15;7.10;;;6.57;;
53299;SDS011;39187;48.476;8.310;2023-02-24T04:25:43;9.20;;;7.20;;
53299;SDS011;39187;48.476;8.310;2023-02-24T04:28:12;11.13;;;7.27;;
53299;SDS011;39187;48.476;8.310;2023-02-24T04:30:41;11.40;;;8.87;;
53299;SDS011;39187;48.476;8.310;2023-02-24T04:33:09;14.40;;;9.80;;
53299;SDS011;39187;48.476;8.310;2023-02-24T04:35:35;10.50;;;9.40;;
53299;SDS011;39187;48.476;8.310;2023-02-24T04:38:02;14.00;;;9.50;;
53299;SDS011;39187;48.476;8.310;2023-02-24T04:40:29;10.73;;;8.20;;
53299;SDS011;39187;48.476;8.310;2023-02-24T04:42:55;9.17;;;8.20;;
53299;SDS011;39187;48.476;8.310;2023-02-24T04:45:22;20.47;;;13.00;;
53299;SDS011;39187;48.476;8.310;2023-02-24T04:47:51;18.97;;;10.80;;
53299;SDS011;39187;48.476;8.310;2023-02-24T04:50:21;18.20;;;10.37;;
53299;SDS011;39187;48.476;8.310;2023-02-24T04:52:49;15.13;;;10.23;;
53299;SDS011;39187;48.476;8.310;2023-02-24T04:55:26;22.63;;;11.60;;
53299;SDS011;39187;48.476;8.310;2023-02-24T04:57:54;20.03;;;9.77;;
53299;SDS011;39187;48.476;8.310;2023-02-24T05:00:21;15.50;;;9.00;;
53299;SDS011;39187;48.476;8.310;2023-02-24T05:02:51;17.00;;;8.97;;
53299;SDS011;39187;48.476;8.310;2023-02-24T05:05:19;12.50;;;8.10;;
53299;SDS011;39187;48.476;8.310;2023-02-24T05:07:56;13.53;;;9.00;;
53299;SDS011;39187;48.476;8.310;2023-02-24T05:10:39;14.13;;;9.17;;
53299;SDS011;39187;48.476;8.310;2023-02-24T05:13:08;15.40;;;8.60;;
53299;SDS011;39187;48.476;8.310;2023-02-24T05:15:39;9.97;;;8.53;;
53299;SDS011;39187;48.476;8.310;2023-02-24T05:18:06;15.60;;;10.20;;
53299;SDS011;39187;48.476;8.310;2023-02-24T05:20:37;17.90;;;9.03;;
53299;SDS011;39187;48.476;8.310;2023-02-24T05:23:24;13.13;;;9.70;;
53299;SDS011;39187;48.476;8.310;2023-02-24T05:25:56;17.83;;;9.90;;
53299;SDS011;39187;48.476;8.310;2023-02-24T05:28:23;14.90;;;10.90;;
53299;SDS011;39187;48.476;8.310;2023-02-24T05:30:50;20.07;;;11.73;;
53299;SDS011;39187;48.476;8.310;2023-02-24T05:33:18;17.20;;;9.13;;
53299;SDS011;39187;48.476;8.310;2023-02-24T05:35:46;16.77;;;9.73;;
53299;SDS011;39187;48.476;8.310;2023-02-24T05:38:12;12.17;;;9.20;;
53299;SDS011;39187;48.476;8.310;2023-02-24T05:40:38;11.10;;;8.63;;
53299;SDS011;39187;48.476;8.310;2023-02-24T05:43:10;11.30;;;9.00;;
53299;SDS011;39187;48.476;8.310;2023-02-24T05:45:42;13.87;;;9.20;;
53299;SDS011;39187;48.476;8.310;2023-02-24T05:48:09;16.07;;;9.60;;
53299;SDS011;39187;48.476;8.310;2023-02-24T05:50:41;12.73;;;8.27;;
53299;SDS011;39187;48.476;8.310;2023-02-24T05:53:16;9.83;;;8.83;;
53299;SDS011;39187;48.476;8.310;2023-02-24T05:55:43;14.80;;;9.93;;
53299;SDS011;39187;48.476;8.310;2023-02-24T05:58:09;15.23;;;9.40;;
53299;SDS011;39187;48.476;8.310;2023-02-24T06:00:34;10.20;;;9.27;;
53299;SDS011;39187;48.476;8.310;2023-02-24T06:03:03;16.87;;;9.47;;
53299;SDS011;39187;48.476;8.310;2023-02-24T06:05:51;21.20;;;9.57;;
53299;SDS011;39187;48.476;8.310;2023-02-24T06:08:17;13.93;;;8.90;;
53299;SDS011;39187;48.476;8.310;2023-02-24T06:10:43;15.17;;;9.43;;
53299;SDS011;39187;48.476;8.310;2023-02-24T06:13:11;17.87;;;10.37;;
53299;SDS011;39187;48.476;8.310;2023-02-24T06:15:37;13.60;;;9.60;;
53299;SDS011;39187;48.476;8.310;2023-02-24T06:18:03;20.57;;;10.63;;
53299;SDS011;39187;48.476;8.310;2023-02-24T06:20:28;13.77;;;9.87;;
53299;SDS011;39187;48.476;8.310;2023-02-24T06:22:57;24.87;;;9.60;;
53299;SDS011;39187;48.476;8.310;2023-02-24T06:25:23;15.70;;;10.50;;
53299;SDS011;39187;48.476;8.310;2023-02-24T06:27:52;21.23;;;10.73;;
53299;SDS011;39187;48.476;8.310;2023-02-24T06:30:23;18.73;;;11.10;;
53299;SDS011;39187;48.476;8.310;2023-02-24T06:32:51;20.53;;;11.60;;
53299;SDS011;39187;48.476;8.310;2023-02-24T06:35:18;22.83;;;10.70;;
53299;SDS011;39187;48.476;8.310;2023-02-24T06:37:45;19.00;;;10.83;;
53299;SDS011;39187;48.476;8.310;2023-02-24T06:40:12;20.00;;;11.47;;
53299;SDS011;39187;48.476;8.310;2023-02-24T06:42:44;15.77;;;9.80;;
53299;SDS011;39187;48.476;8.310;2023-02-24T06:45:11;14.30;;;10.70;;
53299;SDS011;39187;48.476;8.310;2023-02-24T06:47:39;24.63;;;11.73;;
53299;SDS011;39187;48.476;8.310;2023-02-24T06:50:07;23.70;;;11.77;;
53299;SDS011;39187;48.476;8.310;2023-02-24T06:52:34;23.57;;;12.20;;
53299;SDS011;39187;48.476;8.310;2023-02-24T06:55:01;38.73;;;14.63;;
53299;SDS011;39187;48.476;8.310;2023-02-24T06:57:31;32.30;;;12.20;;
53299;SDS011;39187;48.476;8.310;2023-02-24T07:00:00;24.87;;;10.40;;
53299;SDS011;39187;48.476;8.310;2023-02-24T07:02:41;19.43;;;11.77;;
53299;SDS011;39187;48.476;8.310;2023-02-24T07:05:06;102.73;;;14.10;;
53299;SDS011;39187;48.476;8.310;2023-02-24T07:07:38;62.00;;;12.40;;
53299;SDS011;39187;48.476;8.310;2023-02-24T07:10:12;17.57;;;10.73;;
53299;SDS011;39187;48.476;8.310;2023-02-24T07:12:38;63.40;;;13.17;;
53299;SDS011;39187;48.476;8.310;2023-02-24T07:15:06;37.80;;;12.17;;
53299;SDS011;39187;48.476;8.310;2023-02-24T07:17:32;67.83;;;12.60;;
53299;SDS011;39187;48.476;8.310;2023-02-24T07:19:58;131.07;;;12.60;;
53299;SDS011;39187;48.476;8.310;2023-02-24T07:22:35;62.50;;;10.63;;
53299;SDS011;39187;48.476;8.310;2023-02-24T07:25:01;118.90;;;11.47;;
53299;SDS011;39187;48.476;8.310;2023-02-24T07:27:28;89.33;;;12.50;;
53299;SDS011;39187;48.476;8.310;2023-02-24T07:29:54;291.80;;;16.90;;
53299;SDS011;39187;48.476;8.310;2023-02-24T07:32:20;241.33;;;14.90;;
53299;SDS011;39187;48.476;8.310;2023-02-24T07:34:46;112.10;;;11.87;;
53299;SDS011;39187;48.476;8.310;2023-02-24T07:37:12;17.43;;;8.83;;
53299;SDS011;39187;48.476;8.310;2023-02-24T07:39:38;157.67;;;14.10;;
53299;SDS011;39187;48.476;8.310;2023-02-24T07:42:08;81.90;;;11.10;;
53299;SDS011;39187;48.476;8.310;2023-02-24T07:44:36;12.83;;;8.93;;
53299;SDS011;39187;48.476;8.310;2023-02-24T07:47:02;47.50;;;10.67;;
53299;SDS011;39187;48.476;8.310;2023-02-24T07:49:31;28.37;;;9.53;;
53299;SDS011;39187;48.476;8.310;2023-02-24T07:51:58;76.07;;;12.00;;
53299;SDS011;39187;48.476;8.310;2023-02-24T07:54:24;53.23;;;10.77;;
53299;SDS011;39187;48.476;8.310;2023-02-24T07:56:54;32.03;;;11.07;;
53299;SDS011;39187;48.476;8.310;2023-02-24T07:59:26;33.20;;;11.00;;
53299;SDS011;39187;48.476;8.310;2023-02-24T08:01:54;21.10;;;11.70;;
53299;SDS011;39187;48.476;8.310;2023-02-24T08:04:27;19.27;;;9.60;;
53299;SDS011;39187;48.476;8.310;2023-02-24T08:06:54;15.07;;;9.67;;
53299;SDS011;39187;48.476;8.310;2023-02-24T08:09:22;21.03;;;10.53;;
53299;SDS011;39187;48.476;8.310;2023-02-24T08:12:17;28.57;;;12.00;;
53299;SDS011;39187;48.476;8.310;2023-02-24T08:14:46;23.97;;;10.43;;
53299;SDS011;39187;48.476;8.310;2023-02-24T08:17:17;37.27;;;11.13;;
53299;SDS011;39187;48.476;8.310;2023-02-24T08:19:47;19.63;;;11.03;;
53299;SDS011;39187;48.476;8.310;2023-02-24T08:22:15;24.53;;;11.50;;
53299;SDS011;39187;48.476;8.310;2023-02-24T08:24:49;15.93;;;10.80;;
53299;SDS011;39187;48.476;8.310;2023-02-24T08:27:17;27.43;;;10.50;;
53299;SDS011;39187;48.476;8.310;2023-02-24T08:29:51;23.17;;;10.67;;
53299;SDS011;39187;48.476;8.310;2023-02-24T08:35:11;30.57;;;9.50;;
53299;SDS011;39187;48.476;8.310;2023-02-24T08:37:42;20.90;;;10.57;;
53299;SDS011;39187;48.476;8.310;2023-02-24T08:40:17;23.87;;;10.10;;
53299;SDS011;39187;48.476;8.310;2023-02-24T08:43:06;29.60;;;11.67;;
53299;SDS011;39187;48.476;8.310;2023-02-24T08:46:13;27.80;;;10.40;;
53299;SDS011;39187;48.476;8.310;2023-02-24T08:48:53;15.67;;;9.40;;
53299;SDS011;39187;48.476;8.310;2023-02-24T08:53:56;17.13;;;10.47;;
53299;SDS011;39187;48.476;8.310;2023-02-24T08:56:25;16.67;;;9.17;;
53299;SDS011;39187;48.476;8.310;2023-02-24T08:58:54;27.23;;;9.50;;
53299;SDS011;39187;48.476;8.310;2023-02-24T09:01:30;15.23;;;8.77;;
53299;SDS011;39187;48.476;8.310;2023-02-24T09:04:06;19.67;;;9.33;;
53299;SDS011;39187;48.476;8.310;2023-02-24T09:06:36;17.70;;;9.10;;
53299;SDS011;39187;48.476;8.310;2023-02-24T09:09:02;23.63;;;11.33;;
53299;SDS011;39187;48.476;8.310;2023-02-24T09:11:55;23.37;;;10.80;;
53299;SDS011;39187;48.476;8.310;2023-02-24T09:14:24;20.43;;;10.50;;
53299;SDS011;39187;48.476;8.310;2023-02-24T09:17:00;42.67;;;12.93;;
53299;SDS011;39187;48.476;8.310;2023-02-24T09:19:31;23.20;;;12.93;;
53299;SDS011;39187;48.476;8.310;2023-02-24T09:22:19;22.47;;;10.57;;
53299;SDS011;39187;48.476;8.310;2023-02-24T09:24:56;15.53;;;10.60;;
53299;SDS011;39187;48.476;8.310;2023-02-24T09:28:22;54.00;;;9.80;;
53299;SDS011;39187;48.476;8.310;2023-02-24T09:30:48;15.10;;;9.37;;
53299;SDS011;39187;48.476;8.310;2023-02-24T09:33:21;14.73;;;9.00;;
53299;SDS011;39187;48.476;8.310;2023-02-24T09:35:50;24.90;;;10.60;;
53299;SDS011;39187;48.476;8.310;2023-02-24T09:41:26;24.80;;;11.73;;
53299;SDS011;39187;48.476;8.310;2023-02-24T09:43:56;18.97;;;10.03;;
53299;SDS011;39187;48.476;8.310;2023-02-24T09:46:32;13.57;;;9.80;;
53299;SDS011;39187;48.476;8.310;2023-02-24T09:49:04;22.67;;;11.13;;
53299;SDS011;39187;48.476;8.310;2023-02-24T09:51:38;16.40;;;10.87;;
53299;SDS011;39187;48.476;8.310;2023-02-24T09:54:10;28.33;;;11.13;;
53299;SDS011;39187;48.476;8.310;2023-02-24T09:57:00;18.43;;;10.80;;
53299;SDS011;39187;48.476;8.310;2023-02-24T10:05:17;28.57;;;12.00;;
53299;SDS011;39187;48.476;8.310;2023-02-24T10:07:59;55.03;;;11.43;;
53299;SDS011;39187;48.476;8.310;2023-02-24T10:10:26;20.80;;;10.60;;
53299;SDS011;39187;48.476;8.310;2023-02-24T10:13:16;22.67;;;10.37;;
53299;SDS011;39187;48.476;8.310;2023-02-24T10:15:54;28.77;;;11.13;;
53299;SDS011;39187;48.476;8.310;2023-02-24T10:21:19;21.67;;;12.00;;
53299;SDS011;39187;48.476;8.310;2023-02-24T10:26:57;13.57;;;10.40;;
53299;SDS011;39187;48.476;8.310;2023-02-24T10:34:58;20.43;;;12.27;;
53299;SDS011;39187;48.476;8.310;2023-02-24T10:37:25;20.27;;;11.60;;
53299;SDS011;39187;48.476;8.310;2023-02-24T10:39:56;43.47;;;13.67;;
53299;SDS011;39187;48.476;8.310;2023-02-24T10:42:25;35.33;;;13.10;;
53299;SDS011;39187;48.476;8.310;2023-02-24T10:47:58;14.33;;;9.50;;
53299;SDS011;39187;48.476;8.310;2023-02-24T10:53:10;26.10;;;10.40;;
53299;SDS011;39187;48.476;8.310;2023-02-24T10:56:09;13.83;;;10.07;;
53299;SDS011;39187;48.476;8.310;2023-02-24T10:59:01;19.33;;;11.40;;
53299;SDS011;39187;48.476;8.310;2023-02-24T11:01:51;18.57;;;12.83;;
53299;SDS011;39187;48.476;8.310;2023-02-24T11:04:35;39.43;;;13.47;;
53299;SDS011;39187;48.476;8.310;2023-02-24T11:07:28;23.60;;;11.33;;
53299;SDS011;39187;48.476;8.310;2023-02-24T11:10:15;24.57;;;12.53;;
53299;SDS011;39187;48.476;8.310;2023-02-24T11:12:56;14.70;;;10.97;;
53299;SDS011;39187;48.476;8.310;2023-02-24T11:15:52;15.70;;;12.30;;
53299;SDS011;39187;48.476;8.310;2023-02-24T11:18:38;22.50;;;12.27;;
53299;SDS011;39187;48.476;8.310;2023-02-24T11:21:05;18.97;;;11.37;;
53299;SDS011;39187;48.476;8.310;2023-02-24T11:26:13;19.80;;;10.73;;
53299;SDS011;39187;48.476;8.310;2023-02-24T11:29:02;19.60;;;11.50;;
53299;SDS011;39187;48.476;8.310;2023-02-24T11:41:13;19.57;;;12.90;;
53299;SDS011;39187;48.476;8.310;2023-02-24T11:46:59;22.13;;;15.37;;
53299;SDS011;39187;48.476;8.310;2023-02-24T11:52:50;47.97;;;12.10;;
53299;SDS011;39187;48.476;8.310;2023-02-24T11:55:26;43.33;;;13.63;;
53299;SDS011;39187;48.476;8.310;2023-02-24T11:58:02;80.77;;;16.80;;
53299;SDS011;39187;48.476;8.310;2023-02-24T12:00:36;224.40;;;20.47;;
53299;SDS011;39187;48.476;8.310;2023-02-24T12:06:08;232.50;;;17.83;;
53299;SDS011;39187;48.476;8.310;2023-02-24T12:08:46;98.10;;;13.80;;
53299;SDS011;39187;48.476;8.310;2023-02-24T12:16:43;41.03;;;13.47;;
53299;SDS011;39187;48.476;8.310;2023-02-24T12:19:32;23.70;;;13.57;;
53299;SDS011;39187;48.476;8.310;2023-02-24T12:22:10;21.40;;;14.90;;
53299;SDS011;39187;48.476;8.310;2023-02-24T12:24:40;44.67;;;17.17;;
53299;SDS011;39187;48.476;8.310;2023-02-24T12:29:53;27.50;;;13.93;;
53299;SDS011;39187;48.476;8.310;2023-02-24T12:36:04;21.37;;;12.73;;
53299;SDS011;39187;48.476;8.310;2023-02-24T12:41:56;29.30;;;13.63;;
53299;SDS011;39187;48.476;8.310;2023-02-24T12:44:37;27.83;;;14.43;;
53299;SDS011;39187;48.476;8.310;2023-02-24T12:47:16;29.43;;;12.47;;
53299;SDS011;39187;48.476;8.310;2023-02-24T12:50:09;25.13;;;13.43;;
53299;SDS011;39187;48.476;8.310;2023-02-24T12:55:55;42.77;;;13.67;;
53299;SDS011;39187;48.476;8.310;2023-02-24T12:58:35;27.63;;;13.17;;
53299;SDS011;39187;48.476;8.310;2023-02-24T13:01:15;24.43;;;13.07;;
53299;SDS011;39187;48.476;8.310;2023-02-24T13:14:35;36.53;;;14.93;;
53299;SDS011;39187;48.476;8.310;2023-02-24T13:17:14;29.40;;;14.50;;
53299;SDS011;39187;48.476;8.310;2023-02-24T13:19:43;27.47;;;14.97;;
53299;SDS011;39187;48.476;8.310;2023-02-24T13:24:41;22.20;;;13.90;;
53299;SDS011;39187;48.476;8.310;2023-02-24T13:27:30;20.43;;;13.10;;
53299;SDS011;39187;48.476;8.310;2023-02-24T13:30:00;26.27;;;12.97;;
53299;SDS011;39187;48.476;8.310;2023-02-24T13:32:57;28.80;;;13.93;;
53299;SDS011;39187;48.476;8.310;2023-02-24T13:35:47;24.90;;;13.70;;
53299;SDS011;39187;48.476;8.310;2023-02-24T13:41:15;41.30;;;16.07;;
53299;SDS011;39187;48.476;8.310;2023-02-24T13:43:57;42.23;;;14.93;;
53299;SDS011;39187;48.476;8.310;2023-02-24T13:46:29;21.30;;;14.43;;
53299;SDS011;39187;48.476;8.310;2023-02-24T13:49:22;24.63;;;15.20;;
53299;SDS011;39187;48.476;8.310;2023-02-24T13:52:55;22.93;;;14.53;;
53299;SDS011;39187;48.476;8.310;2023-02-24T14:00:25;25.43;;;12.27;;
53299;SDS011;39187;48.476;8.310;2023-02-24T14:02:57;21.83;;;13.83;;
53299;SDS011;39187;48.476;8.310;2023-02-24T14:05:24;18.30;;;13.57;;
53299;SDS011;39187;48.476;8.310;2023-02-24T14:07:55;31.13;;;14.97;;
53299;SDS011;39187;48.476;8.310;2023-02-24T14:10:25;52.43;;;15.50;;
53299;SDS011;39187;48.476;8.310;2023-02-24T14:13:34;27.97;;;14.47;;
53299;SDS011;39187;48.476;8.310;2023-02-24T14:15:43;31.67;;;16.17;;
53299;SDS011;39187;48.476;8.310;2023-02-24T14:18:18;28.73;;;14.57;;
53299;SDS011;39187;48.476;8.310;2023-02-24T14:20:49;24.97;;;13.70;;
53299;SDS011;39187;48.476;8.310;2023-02-24T14:23:23;26.70;;;14.00;;
53299;SDS011;39187;48.476;8.310;2023-02-24T14:25:53;22.33;;;13.93;;
53299;SDS011;39187;48.476;8.310;2023-02-24T14:28:23;20.83;;;12.87;;
53299;SDS011;39187;48.476;8.310;2023-02-24T14:30:56;20.13;;;12.53;;
53299;SDS011;39187;48.476;8.310;2023-02-24T14:33:31;28.63;;;13.80;;
53299;SDS011;39187;48.476;8.310;2023-02-24T14:36:00;32.07;;;13.63;;
53299;SDS011;39187;48.476;8.310;2023-02-24T14:38:37;19.30;;;14.20;;
53299;SDS011;39187;48.476;8.310;2023-02-24T14:41:06;30.27;;;14.60;;
53299;SDS011;39187;48.476;8.310;2023-02-24T14:43:42;21.30;;;13.83;;
53299;SDS011;39187;48.476;8.310;2023-02-24T14:46:07;23.10;;;12.80;;
53299;SDS011;39187;48.476;8.310;2023-02-24T14:48:33;18.17;;;12.90;;
53299;SDS011;39187;48.476;8.310;2023-02-24T14:51:06;26.90;;;14.57;;
53299;SDS011;39187;48.476;8.310;2023-02-24T14:53:44;21.60;;;12.10;;
53299;SDS011;39187;48.476;8.310;2023-02-24T14:56:14;26.70;;;12.80;;
53299;SDS011;39187;48.476;8.310;2023-02-24T14:58:43;22.70;;;13.00;;
53299;SDS011;39187;48.476;8.310;2023-02-24T15:04:17;23.67;;;11.87;;
53299;SDS011;39187;48.476;8.310;2023-02-24T15:06:46;23.60;;;13.40;;
53299;SDS011;39187;48.476;8.310;2023-02-24T15:11:46;21.03;;;13.13;;
53299;SDS011;39187;48.476;8.310;2023-02-24T15:14:23;25.17;;;16.00;;
53299;SDS011;39187;48.476;8.310;2023-02-24T15:16:58;30.30;;;15.87;;
53299;SDS011;39187;48.476;8.310;2023-02-24T15:19:34;31.53;;;14.70;;
53299;SDS011;39187;48.476;8.310;2023-02-24T15:22:19;23.93;;;14.27;;
53299;SDS011;39187;48.476;8.310;2023-02-24T15:24:47;25.83;;;13.77;;
53299;SDS011;39187;48.476;8.310;2023-02-24T15:29:42;81.80;;;17.50;;
53299;SDS011;39187;48.476;8.310;2023-02-24T15:32:20;31.97;;;14.17;;
53299;SDS011;39187;48.476;8.310;2023-02-24T15:34:52;112.77;;;15.37;;
53299;SDS011;39187;48.476;8.310;2023-02-24T15:37:28;25.67;;;14.10;;
53299;SDS011;39187;48.476;8.310;2023-02-24T15:40:02;175.00;;;16.63;;
53299;SDS011;39187;48.476;8.310;2023-02-24T15:42:56;303.67;;;23.23;;
53299;SDS011;39187;48.476;8.310;2023-02-24T15:45:26;16.17;;;12.50;;
53299;SDS011;39187;48.476;8.310;2023-02-24T15:47:58;20.00;;;13.73;;
53299;SDS011;39187;48.476;8.310;2023-02-24T15:50:25;96.90;;;13.80;;
53299;SDS011;39187;48.476;8.310;2023-02-24T15:52:51;59.20;;;14.80;;
53299;SDS011;39187;48.476;8.310;2023-02-24T15:55:17;151.83;;;19.43;;
53299;SDS011;39187;48.476;8.310;2023-02-24T15:57:44;44.43;;;15.33;;
53299;SDS011;39187;48.476;8.310;2023-02-24T16:00:12;28.43;;;14.10;;
53299;SDS011;39187;48.476;8.310;2023-02-24T16:02:40;69.17;;;14.77;;
53299;SDS011;39187;48.476;8.310;2023-02-24T16:05:07;23.80;;;13.33;;
53299;SDS011;39187;48.476;8.310;2023-02-24T16:07:36;21.43;;;12.57;;
53299;SDS011;39187;48.476;8.310;2023-02-24T16:10:03;27.63;;;12.93;;
53299;SDS011;39187;48.476;8.310;2023-02-24T16:12:31;14.13;;;12.33;;
53299;SDS011;39187;48.476;8.310;2023-02-24T16:15:00;21.53;;;13.80;;
53299;SDS011;39187;48.476;8.310;2023-02-24T16:17:33;28.93;;;13.33;;
53299;SDS011;39187;48.476;8.310;2023-02-24T16:20:03;40.83;;;13.77;;
53299;SDS011;39187;48.476;8.310;2023-02-24T16:22:34;17.90;;;12.00;;
53299;SDS011;39187;48.476;8.310;2023-02-24T16:24:59;20.57;;;12.23;;
53299;SDS011;39187;48.476;8.310;2023-02-24T16:27:25;40.00;;;13.90;;
53299;SDS011;39187;48.476;8.310;2023-02-24T16:29:54;69.43;;;11.93;;
53299;SDS011;39187;48.476;8.310;2023-02-24T16:32:20;21.50;;;11.40;;
53299;SDS011;39187;48.476;8.310;2023-02-24T16:34:48;10.80;;;8.97;;
53299;SDS011;39187;48.476;8.310;2023-02-24T16:39:44;11.97;;;8.60;;
53299;SDS011;39187;48.476;8.310;2023-02-24T16:42:11;8.13;;;7.40;;
53299;SDS011;39187;48.476;8.310;2023-02-24T16:44:37;20.83;;;9.20;;
53299;SDS011;39187;48.476;8.310;2023-02-24T16:47:03;11.43;;;8.70;;
53299;SDS011;39187;48.476;8.310;2023-02-24T16:49:31;12.37;;;8.00;;
53299;SDS011;39187;48.476;8.310;2023-02-24T16:51:58;10.03;;;8.20;;
53299;SDS011;39187;48.476;8.310;2023-02-24T16:54:23;13.13;;;9.60;;
53299;SDS011;39187;48.476;8.310;2023-02-24T16:56:56;14.63;;;10.60;;
53299;SDS011;39187;48.476;8.310;2023-02-24T16:59:22;27.33;;;12.60;;
53299;SDS011;39187;48.476;8.310;2023-02-24T17:01:51;19.17;;;10.97;;
53299;SDS011;39187;48.476;8.310;2023-02-24T17:04:17;13.87;;;10.07;;
53299;SDS011;39187;48.476;8.310;2023-02-24T17:06:45;22.27;;;13.13;;
53299;SDS011;39187;48.476;8.310;2023-02-24T17:09:11;19.43;;;12.00;;
53299;SDS011;39187;48.476;8.310;2023-02-24T17:11:39;21.80;;;11.93;;
53299;SDS011;39187;48.476;8.310;2023-02-24T17:14:08;23.77;;;12.50;;
53299;SDS011;39187;48.476;8.310;2023-02-24T17:16:43;24.63;;;13.50;;
53299;SDS011;39187;48.476;8.310;2023-02-24T17:19:09;18.23;;;12.57;;